Time,TemperatureF,DewpointF,PressureIn,WindDirection,WindDirectionDegrees,WindSpeedMPH,WindSpeedGustMPH,Humidity,HourlyPrecipIn,Conditions,Clouds,dailyrainin,SoftwareType,DateUTC
2013-04-08 00:00:00,42.8,32.2,29.98,NE,45,3.8,9.2,66,0.00,,,0.00,meteobridge,2013-04-08 04:00:00,
2013-04-08 00:05:00,42.8,32.2,29.98,NE,45,3.8,3.8,66,0.00,,,0.00,meteobridge,2013-04-08 04:05:00,
2013-04-08 00:10:00,42.8,32.2,29.98,NE,45,7.6,7.6,66,0.00,,,0.00,meteobridge,2013-04-08 04:10:00,
2013-04-08 00:15:00,42.6,32.4,29.98,NW,315,4.5,7.6,67,0.00,,,0.00,meteobridge,2013-04-08 04:15:00,
2013-04-08 00:21:00,42.6,32.4,29.98,NW,315,4.5,4.5,67,0.00,,,0.00,meteobridge,2013-04-08 04:21:00,
2013-04-08 00:26:00,42.4,32.2,29.98,West,270,5.4,5.4,67,0.00,,,0.00,meteobridge,2013-04-08 04:26:00,
2013-04-08 00:31:00,42.4,32.2,29.98,North,0,3.1,4.5,67,0.00,,,0.00,meteobridge,2013-04-08 04:31:00,
2013-04-08 00:36:00,42.4,32.2,29.98,NW,315,5.4,5.4,67,0.00,,,0.00,meteobridge,2013-04-08 04:36:00,
2013-04-08 00:41:00,42.3,32.2,29.98,NW,315,5.4,5.4,67,0.00,,,0.00,meteobridge,2013-04-08 04:41:00,
2013-04-08 00:46:00,42.3,32.5,29.98,North,0,3.8,4.5,68,0.00,,,0.00,meteobridge,2013-04-08 04:46:00,
2013-04-08 00:52:00,42.3,32.5,29.98,NE,45,3.1,4.5,68,0.00,,,0.00,meteobridge,2013-04-08 04:52:00,
2013-04-08 00:57:00,41.9,32.2,29.98,NE,45,3.1,3.1,68,0.00,,,0.00,meteobridge,2013-04-08 04:57:00,
2013-04-08 01:02:00,41.7,32.4,29.98,NE,45,3.1,3.8,69,0.00,,,0.00,meteobridge,2013-04-08 05:02:00,
2013-04-08 01:07:00,41.5,32.2,29.99,NNW,338,2.2,2.2,69,0.00,,,0.00,meteobridge,2013-04-08 05:07:00,
2013-04-08 01:12:00,41.2,32.2,29.98,North,0,0.7,2.2,70,0.00,,,0.00,meteobridge,2013-04-08 05:12:00,
2013-04-08 01:17:00,40.8,32.2,29.99,North,0,2.2,3.1,71,0.00,,,0.00,meteobridge,2013-04-08 05:17:00,
2013-04-08 01:23:00,40.5,31.8,29.99,East,90,1.6,2.2,71,0.00,,,0.00,meteobridge,2013-04-08 05:23:00,
2013-04-08 01:28:00,40.3,31.6,29.99,NE,45,1.6,2.2,71,0.00,,,0.00,meteobridge,2013-04-08 05:28:00,
2013-04-08 01:33:00,40.1,31.5,29.99,North,0,1.6,1.6,71,0.00,,,0.00,meteobridge,2013-04-08 05:33:00,
2013-04-08 01:38:00,39.9,31.3,29.99,WNW,293,1.6,2.2,71,0.00,,,0.00,meteobridge,2013-04-08 05:38:00,
2013-04-08 01:43:00,39.7,31.1,30.00,NW,315,2.2,2.2,71,0.00,,,0.00,meteobridge,2013-04-08 05:43:00,
2013-04-08 01:48:00,39.7,31.1,30.00,North,0,3.1,3.1,71,0.00,,,0.00,meteobridge,2013-04-08 05:48:00,
2013-04-08 01:54:00,39.9,31.3,29.99,North,0,3.1,3.8,71,0.00,,,0.00,meteobridge,2013-04-08 05:54:00,
2013-04-08 01:59:00,40.1,31.5,30.00,NW,315,3.1,3.8,71,0.00,,,0.00,meteobridge,2013-04-08 05:59:00,
2013-04-08 02:04:00,40.1,31.5,29.99,NW,315,2.2,2.2,71,0.00,,,0.00,meteobridge,2013-04-08 06:04:00,
2013-04-08 02:09:00,39.9,31.3,29.99,NW,315,1.6,2.2,71,0.00,,,0.00,meteobridge,2013-04-08 06:09:00,
2013-04-08 02:14:00,39.7,31.1,30.00,WNW,293,1.6,2.2,71,0.00,,,0.00,meteobridge,2013-04-08 06:14:00,
2013-04-08 02:19:00,39.6,30.9,29.99,North,0,0.7,1.6,71,0.00,,,0.00,meteobridge,2013-04-08 06:19:00,
2013-04-08 02:25:00,39.4,30.7,30.00,West,270,0.7,0.7,71,0.00,,,0.00,meteobridge,2013-04-08 06:25:00,
2013-04-08 02:30:00,39.2,30.6,30.00,NE,45,0.7,1.6,71,0.00,,,0.00,meteobridge,2013-04-08 06:30:00,
2013-04-08 02:35:00,39.2,30.9,29.99,North,0,0.7,2.2,72,0.00,,,0.00,meteobridge,2013-04-08 06:35:00,
2013-04-08 02:40:00,39.2,30.9,30.00,North,0,1.6,1.6,72,0.00,,,0.00,meteobridge,2013-04-08 06:40:00,
2013-04-08 02:45:00,39.4,31.1,30.00,North,0,1.6,1.6,72,0.00,,,0.00,meteobridge,2013-04-08 06:45:00,
2013-04-08 02:50:00,39.4,31.1,30.00,NW,315,1.6,1.6,72,0.00,,,0.00,meteobridge,2013-04-08 06:50:00,
2013-04-08 02:56:00,39.2,30.9,30.00,North,0,0.7,1.6,72,0.00,,,0.00,meteobridge,2013-04-08 06:56:00,
2013-04-08 03:01:00,39.2,30.9,30.00,West,270,1.6,1.6,72,0.00,,,0.00,meteobridge,2013-04-08 07:01:00,
2013-04-08 03:06:00,38.8,30.9,29.99,North,0,0.7,0.7,73,0.00,,,0.00,meteobridge,2013-04-08 07:06:00,
2013-04-08 03:11:00,38.7,30.7,29.99,NW,315,0.0,0.0,73,0.00,,,0.00,meteobridge,2013-04-08 07:11:00,
2013-04-08 03:16:00,38.3,30.4,29.99,North,0,1.6,1.6,73,0.00,,,0.00,meteobridge,2013-04-08 07:16:00,
2013-04-08 03:21:00,38.3,30.7,29.99,WNW,293,1.6,2.2,74,0.00,,,0.00,meteobridge,2013-04-08 07:21:00,
2013-04-08 03:27:00,38.5,31.3,29.99,West,270,2.2,2.2,75,0.00,,,0.00,meteobridge,2013-04-08 07:27:00,
2013-04-08 03:32:00,38.5,31.3,29.99,North,0,0.7,2.2,75,0.00,,,0.00,meteobridge,2013-04-08 07:32:00,
2013-04-08 03:37:00,38.3,30.7,29.99,West,270,0.0,0.0,74,0.00,,,0.00,meteobridge,2013-04-08 07:37:00,
2013-04-08 03:42:00,37.8,30.2,29.99,West,270,0.0,0.0,74,0.00,,,0.00,meteobridge,2013-04-08 07:42:00,
2013-04-08 03:47:00,37.2,28.4,29.99,West,270,0.0,0.0,70,0.00,,,0.00,meteobridge,2013-04-08 07:47:00,
2013-04-08 03:52:00,36.5,27.7,30.00,West,270,0.0,0.0,70,0.00,,,0.00,meteobridge,2013-04-08 07:52:00,
2013-04-08 03:57:00,36.0,27.5,29.99,West,270,0.0,0.0,71,0.00,,,0.00,meteobridge,2013-04-08 07:57:00,
2013-04-08 04:03:00,35.8,27.3,29.99,West,270,0.0,0.0,71,0.00,,,0.00,meteobridge,2013-04-08 08:03:00,
2013-04-08 04:08:00,35.6,27.5,29.99,East,90,0.0,0.0,72,0.00,,,0.00,meteobridge,2013-04-08 08:08:00,
2013-04-08 04:13:00,35.6,27.5,29.99,East,90,0.0,0.0,72,0.00,,,0.00,meteobridge,2013-04-08 08:13:00,
2013-04-08 04:18:00,35.2,27.5,29.99,East,90,0.0,0.0,73,0.00,,,0.00,meteobridge,2013-04-08 08:18:00,
2013-04-08 04:23:00,35.1,27.7,30.00,East,90,0.0,0.0,74,0.00,,,0.00,meteobridge,2013-04-08 08:23:00,
2013-04-08 04:29:00,34.7,27.3,30.00,East,90,0.0,0.0,74,0.00,,,0.00,meteobridge,2013-04-08 08:29:00,
2013-04-08 04:34:00,34.5,27.1,30.00,East,90,0.0,0.0,74,0.00,,,0.00,meteobridge,2013-04-08 08:34:00,
2013-04-08 04:39:00,34.2,27.1,29.99,East,90,0.0,0.0,75,0.00,,,0.00,meteobridge,2013-04-08 08:39:00,
2013-04-08 04:44:00,34.0,27.0,29.99,East,90,0.0,0.0,75,0.00,,,0.00,meteobridge,2013-04-08 08:44:00,
2013-04-08 04:49:00,33.6,26.8,30.00,East,90,0.0,0.0,76,0.00,,,0.00,meteobridge,2013-04-08 08:49:00,
2013-04-08 04:54:00,33.4,26.8,30.00,East,90,0.0,0.0,76,0.00,,,0.00,meteobridge,2013-04-08 08:54:00,
2013-04-08 04:59:00,33.3,26.6,30.00,East,90,0.7,0.7,76,0.00,,,0.00,meteobridge,2013-04-08 08:59:00,
2013-04-08 05:05:00,33.1,26.6,30.00,East,90,0.0,0.0,77,0.00,,,0.00,meteobridge,2013-04-08 09:05:00,
2013-04-08 05:10:00,32.7,26.2,30.00,East,90,0.7,0.7,77,0.00,,,0.00,meteobridge,2013-04-08 09:10:00,
2013-04-08 05:15:00,32.7,26.6,30.00,East,90,0.0,0.0,78,0.00,,,0.00,meteobridge,2013-04-08 09:15:00,
2013-04-08 05:20:00,32.7,26.6,30.00,East,90,0.0,0.0,78,0.00,,,0.00,meteobridge,2013-04-08 09:20:00,
2013-04-08 05:25:00,32.5,26.8,30.00,East,90,0.0,0.0,79,0.00,,,0.00,meteobridge,2013-04-08 09:25:00,
2013-04-08 05:30:00,32.4,26.6,29.99,East,90,0.7,0.7,79,0.00,,,0.00,meteobridge,2013-04-08 09:30:00,
2013-04-08 05:36:00,32.2,26.4,29.99,North,0,0.0,0.7,79,0.00,,,0.00,meteobridge,2013-04-08 09:36:00,
2013-04-08 05:41:00,32.2,26.4,29.99,North,0,0.0,0.0,79,0.00,,,0.00,meteobridge,2013-04-08 09:41:00,
2013-04-08 05:46:00,32.0,26.2,29.99,North,0,0.0,0.0,79,0.00,,,0.00,meteobridge,2013-04-08 09:46:00,
2013-04-08 05:51:00,31.6,26.4,29.99,North,0,0.0,0.0,81,0.00,,,0.00,meteobridge,2013-04-08 09:51:00,
2013-04-08 05:56:00,31.3,26.1,29.99,North,0,0.0,0.0,81,0.00,,,0.00,meteobridge,2013-04-08 09:56:00,
2013-04-08 06:01:00,31.1,25.9,29.99,North,0,0.0,0.0,81,0.00,,,0.00,meteobridge,2013-04-08 10:01:00,
2013-04-08 06:07:00,30.9,25.7,29.99,North,0,0.0,0.0,81,0.00,,,0.00,meteobridge,2013-04-08 10:07:00,
2013-04-08 06:12:00,30.7,25.9,29.99,North,0,0.0,0.0,82,0.00,,,0.00,meteobridge,2013-04-08 10:12:00,
2013-04-08 06:17:00,30.6,26.1,30.00,North,0,0.0,0.0,83,0.00,,,0.00,meteobridge,2013-04-08 10:17:00,
2013-04-08 06:22:00,30.2,25.7,30.00,North,0,0.0,0.0,83,0.00,,,0.00,meteobridge,2013-04-08 10:22:00,
2013-04-08 06:27:00,30.0,25.7,30.00,North,0,0.0,0.0,84,0.00,,,0.00,meteobridge,2013-04-08 10:27:00,
2013-04-08 06:32:00,30.0,25.7,30.00,North,0,0.0,0.0,84,0.00,,,0.00,meteobridge,2013-04-08 10:32:00,
2013-04-08 06:38:00,30.0,26.1,30.00,SE,135,0.0,0.0,85,0.00,,,0.00,meteobridge,2013-04-08 10:38:00,
2013-04-08 06:43:00,30.0,26.1,30.01,North,0,0.7,0.7,85,0.00,,,0.00,meteobridge,2013-04-08 10:43:00,
2013-04-08 06:48:00,30.2,25.9,30.01,North,0,0.7,0.7,84,0.00,,,0.00,meteobridge,2013-04-08 10:48:00,
2013-04-08 06:53:00,30.4,26.1,30.01,NE,45,0.7,0.7,84,0.00,,,0.00,meteobridge,2013-04-08 10:53:00,
2013-04-08 06:58:00,30.4,26.1,30.01,NE,45,0.7,1.6,84,0.00,,,0.00,meteobridge,2013-04-08 10:58:00,
2013-04-08 07:08:00,30.7,26.4,30.02,NW,315,0.0,0.0,84,0.00,,,0.00,meteobridge,2013-04-08 11:08:00,
2013-04-08 07:14:00,31.1,26.8,30.02,East,90,0.0,0.7,84,0.00,,,0.00,meteobridge,2013-04-08 11:14:00,
2013-04-08 07:19:00,32.2,27.9,30.03,East,90,0.0,0.0,84,0.00,,,0.00,meteobridge,2013-04-08 11:19:00,
2013-04-08 07:24:00,33.8,29.1,30.03,East,90,0.0,0.0,83,0.00,,,0.00,meteobridge,2013-04-08 11:24:00,
2013-04-08 07:29:00,36.0,30.9,30.03,East,90,0.0,0.0,82,0.00,,,0.00,meteobridge,2013-04-08 11:29:00,
2013-04-08 07:34:00,37.0,31.8,30.02,NE,45,0.7,0.7,81,0.00,,,0.00,meteobridge,2013-04-08 11:34:00,
2013-04-08 07:40:00,36.9,30.6,30.03,East,90,0.7,0.7,78,0.00,,,0.00,meteobridge,2013-04-08 11:40:00,
2013-04-08 07:45:00,37.0,30.2,30.03,East,90,1.6,1.6,76,0.00,,,0.00,meteobridge,2013-04-08 11:45:00,
2013-04-08 07:50:00,37.4,31.8,30.03,East,90,1.6,1.6,80,0.00,,,0.00,meteobridge,2013-04-08 11:50:00,
2013-04-08 07:55:00,37.8,31.8,30.03,East,90,0.7,0.7,79,0.00,,,0.00,meteobridge,2013-04-08 11:55:00,
2013-04-08 08:00:00,38.5,32.5,30.03,East,90,0.7,1.6,79,0.00,,,0.00,meteobridge,2013-04-08 12:00:00,
2013-04-08 08:05:00,39.6,32.9,30.03,East,90,2.2,2.2,77,0.00,,,0.00,meteobridge,2013-04-08 12:05:00,
2013-04-08 08:10:00,39.9,32.7,30.03,East,90,2.2,2.2,75,0.00,,,0.00,meteobridge,2013-04-08 12:10:00,
2013-04-08 08:16:00,40.3,33.1,30.03,East,90,2.2,2.2,75,0.00,,,0.00,meteobridge,2013-04-08 12:16:00,
2013-04-08 08:21:00,41.2,33.3,30.03,East,90,2.2,2.2,73,0.00,,,0.00,meteobridge,2013-04-08 12:21:00,
2013-04-08 08:26:00,41.9,33.6,30.03,East,90,1.6,1.6,72,0.00,,,0.00,meteobridge,2013-04-08 12:26:00,
2013-04-08 08:31:00,42.1,33.4,30.03,NE,45,1.6,3.1,71,0.00,,,0.00,meteobridge,2013-04-08 12:31:00,
2013-04-08 08:36:00,42.1,33.1,30.03,ENE,68,1.6,3.1,70,0.00,,,0.00,meteobridge,2013-04-08 12:36:00,
2013-04-08 08:42:00,42.3,32.9,30.03,East,90,3.8,3.8,69,0.00,,,0.00,meteobridge,2013-04-08 12:42:00,
2013-04-08 08:47:00,42.8,32.9,30.03,East,90,3.1,4.5,68,0.00,,,0.00,meteobridge,2013-04-08 12:47:00,
2013-04-08 08:52:00,43.3,33.1,30.03,East,90,2.2,2.2,67,0.00,,,0.00,meteobridge,2013-04-08 12:52:00,
2013-04-08 08:57:00,44.2,33.6,30.03,NE,45,3.8,3.8,66,0.00,,,0.00,meteobridge,2013-04-08 12:57:00,
2013-04-08 09:02:00,44.8,33.3,30.03,East,90,4.5,5.4,64,0.00,,,0.00,meteobridge,2013-04-08 13:02:00,
2013-04-08 09:07:00,45.1,33.3,30.02,East,90,3.8,4.5,63,0.00,,,0.00,meteobridge,2013-04-08 13:07:00,
2013-04-08 09:12:00,45.7,33.8,30.03,NE,45,2.2,4.5,63,0.00,,,0.00,meteobridge,2013-04-08 13:12:00,
2013-04-08 09:18:00,46.4,34.5,30.02,SE,135,2.2,3.8,63,0.00,,,0.00,meteobridge,2013-04-08 13:18:00,
2013-04-08 09:23:00,46.6,33.8,30.02,East,90,5.4,6.9,61,0.00,,,0.00,meteobridge,2013-04-08 13:23:00,
2013-04-08 09:28:00,46.2,33.4,30.02,East,90,3.8,4.5,61,0.00,,,0.00,meteobridge,2013-04-08 13:28:00,
2013-04-08 09:33:00,46.6,34.3,30.02,East,90,6.9,6.9,62,0.00,,,0.00,meteobridge,2013-04-08 13:33:00,
2013-04-08 09:38:00,47.3,35.4,30.02,East,90,3.8,3.8,63,0.00,,,0.00,meteobridge,2013-04-08 13:38:00,
2013-04-08 09:43:00,48.9,35.6,30.01,SE,135,3.8,4.5,60,0.00,,,0.00,meteobridge,2013-04-08 13:43:00,
2013-04-08 09:49:00,48.9,35.2,30.01,SE,135,4.5,5.4,59,0.00,,,0.00,meteobridge,2013-04-08 13:49:00,
2013-04-08 09:54:00,49.1,35.4,30.01,NNE,23,4.5,5.4,59,0.00,,,0.00,meteobridge,2013-04-08 13:54:00,
2013-04-08 09:59:00,49.1,34.9,30.01,East,90,6.0,7.6,58,0.00,,,0.00,meteobridge,2013-04-08 13:59:00,
2013-04-08 10:04:00,48.7,35.1,30.02,SE,135,5.4,5.4,59,0.00,,,0.00,meteobridge,2013-04-08 14:04:00,
2013-04-08 10:09:00,49.1,35.4,30.01,East,90,7.6,7.6,59,0.00,,,0.00,meteobridge,2013-04-08 14:09:00,
2013-04-08 10:14:00,48.9,35.2,30.01,SE,135,3.1,6.0,59,0.00,,,0.00,meteobridge,2013-04-08 14:14:00,
2013-04-08 10:20:00,50.2,36.3,30.01,NE,45,3.1,5.4,59,0.00,,,0.00,meteobridge,2013-04-08 14:20:00,
2013-04-08 10:25:00,51.3,37.0,30.01,East,90,4.5,5.4,58,0.00,,,0.00,meteobridge,2013-04-08 14:25:00,
2013-04-08 10:30:00,50.9,36.1,30.01,South,180,3.1,5.4,57,0.00,,,0.00,meteobridge,2013-04-08 14:30:00,
2013-04-08 10:35:00,51.3,36.5,30.00,East,90,3.8,6.0,57,0.00,,,0.00,meteobridge,2013-04-08 14:35:00,
2013-04-08 10:40:00,51.8,37.0,30.00,SE,135,4.5,5.4,57,0.00,,,0.00,meteobridge,2013-04-08 14:40:00,
2013-04-08 10:45:00,52.9,36.7,30.00,SE,135,3.1,3.1,54,0.00,,,0.00,meteobridge,2013-04-08 14:45:00,
2013-04-08 10:51:00,52.9,36.7,30.00,SE,135,4.5,6.0,54,0.00,,,0.00,meteobridge,2013-04-08 14:51:00,
2013-04-08 10:56:00,52.7,36.5,30.00,East,90,3.8,5.4,54,0.00,,,0.00,meteobridge,2013-04-08 14:56:00,
2013-04-08 11:01:00,52.7,36.5,29.99,SW,225,1.6,2.2,54,0.00,,,0.00,meteobridge,2013-04-08 15:01:00,
2013-04-08 11:06:00,54.9,37.6,29.98,SW,225,4.5,5.4,52,0.00,,,0.00,meteobridge,2013-04-08 15:06:00,
2013-04-08 11:11:00,55.4,37.0,29.98,East,90,1.6,4.5,50,0.00,,,0.00,meteobridge,2013-04-08 15:11:00,
2013-04-08 11:16:00,54.7,36.9,29.99,NE,45,3.8,3.8,51,0.00,,,0.00,meteobridge,2013-04-08 15:16:00,
2013-04-08 11:22:00,53.6,35.4,29.99,WSW,248,4.5,4.5,50,0.00,,,0.00,meteobridge,2013-04-08 15:22:00,
2013-04-08 11:27:00,52.9,35.8,29.99,East,90,5.4,5.4,52,0.00,,,0.00,meteobridge,2013-04-08 15:27:00,
2013-04-08 11:32:00,52.9,36.1,29.98,East,90,0.7,3.8,53,0.00,,,0.00,meteobridge,2013-04-08 15:32:00,
2013-04-08 11:37:00,54.0,36.3,29.98,SE,135,4.5,6.0,51,0.00,,,0.00,meteobridge,2013-04-08 15:37:00,
2013-04-08 11:42:00,54.7,36.9,29.98,South,180,3.1,5.4,51,0.00,,,0.00,meteobridge,2013-04-08 15:42:00,
2013-04-08 11:47:00,55.4,36.5,29.97,SW,225,0.7,4.5,49,0.00,,,0.00,meteobridge,2013-04-08 15:47:00,
2013-04-08 11:53:00,57.6,37.4,29.98,SE,135,3.1,3.8,47,0.00,,,0.00,meteobridge,2013-04-08 15:53:00,
2013-04-08 11:58:00,57.9,37.2,29.97,South,180,3.1,4.5,46,0.00,,,0.00,meteobridge,2013-04-08 15:58:00,
2013-04-08 12:03:00,57.6,37.4,29.97,East,90,3.1,5.4,47,0.00,,,0.00,meteobridge,2013-04-08 16:03:00,
2013-04-08 12:08:00,57.6,36.9,29.97,East,90,3.8,5.4,46,0.00,,,0.00,meteobridge,2013-04-08 16:08:00,
2013-04-08 12:13:00,57.4,36.7,29.97,North,0,3.1,3.8,46,0.00,,,0.00,meteobridge,2013-04-08 16:13:00,
2013-04-08 12:18:00,58.1,36.9,29.97,SE,135,4.5,5.4,45,0.00,,,0.00,meteobridge,2013-04-08 16:18:00,
2013-04-08 12:29:00,57.7,37.0,29.97,South,180,2.2,5.4,46,0.00,,,0.00,meteobridge,2013-04-08 16:29:00,
2013-04-08 12:34:00,58.5,37.8,29.96,NW,315,2.2,2.2,46,0.00,,,0.00,meteobridge,2013-04-08 16:34:00,
2013-04-08 12:39:00,59.9,37.4,29.96,South,180,4.5,6.9,43,0.00,,,0.00,meteobridge,2013-04-08 16:39:00,
2013-04-08 12:44:00,59.9,37.4,29.95,SW,225,2.2,3.8,43,0.00,,,0.00,meteobridge,2013-04-08 16:44:00,
2013-04-08 12:49:00,60.8,37.6,29.95,East,90,5.4,5.4,42,0.00,,,0.00,meteobridge,2013-04-08 16:49:00,
2013-04-08 12:54:00,60.8,37.6,29.95,East,90,3.1,5.4,42,0.00,,,0.00,meteobridge,2013-04-08 16:54:00,
2013-04-08 13:00:00,61.5,38.3,29.94,East,90,6.0,6.0,42,0.00,,,0.00,meteobridge,2013-04-08 17:00:00,
2013-04-08 13:05:00,60.8,37.6,29.94,South,180,5.4,5.4,42,0.00,,,0.00,meteobridge,2013-04-08 17:05:00,
2013-04-08 13:10:00,61.5,38.8,29.94,NE,45,3.1,3.8,43,0.00,,,0.00,meteobridge,2013-04-08 17:10:00,
2013-04-08 13:15:00,62.2,37.6,29.94,ESE,113,4.5,6.9,40,0.00,,,0.00,meteobridge,2013-04-08 17:15:00,
2013-04-08 13:20:00,61.7,37.2,29.93,NW,315,1.6,2.2,40,0.00,,,0.00,meteobridge,2013-04-08 17:20:00,
2013-04-08 13:25:00,62.6,38.5,29.93,SW,225,3.8,4.5,41,0.00,,,0.00,meteobridge,2013-04-08 17:25:00,
2013-04-08 13:31:00,63.0,38.3,29.93,East,90,4.5,5.4,40,0.00,,,0.00,meteobridge,2013-04-08 17:31:00,
2013-04-08 13:36:00,63.1,39.0,29.92,NE,45,4.5,4.5,41,0.00,,,0.00,meteobridge,2013-04-08 17:36:00,
2013-04-08 13:41:00,63.9,39.7,29.92,NE,45,3.1,3.8,41,0.00,,,0.00,meteobridge,2013-04-08 17:41:00,
2013-04-08 13:46:00,64.4,38.8,29.91,SE,135,4.5,6.0,39,0.00,,,0.00,meteobridge,2013-04-08 17:46:00,
2013-04-08 13:51:00,65.1,39.6,29.91,East,90,5.4,5.4,39,0.00,,,0.00,meteobridge,2013-04-08 17:51:00,
2013-04-08 13:56:00,64.2,37.4,29.91,East,90,3.1,3.1,37,0.00,,,0.00,meteobridge,2013-04-08 17:56:00,
2013-04-08 14:02:00,64.4,38.3,29.91,East,90,3.1,3.1,38,0.00,,,0.00,meteobridge,2013-04-08 18:02:00,
2013-04-08 14:07:00,63.9,37.0,29.90,North,0,2.2,4.5,37,0.00,,,0.00,meteobridge,2013-04-08 18:07:00,
2013-04-08 14:12:00,64.2,38.7,29.89,SE,135,3.8,4.5,39,0.00,,,0.00,meteobridge,2013-04-08 18:12:00,
2013-04-08 14:17:00,64.6,38.5,29.89,ESE,113,3.1,3.8,38,0.00,,,0.00,meteobridge,2013-04-08 18:17:00,
2013-04-08 14:22:00,64.6,38.5,29.89,East,90,3.1,4.5,38,0.00,,,0.00,meteobridge,2013-04-08 18:22:00,
2013-04-08 14:27:00,64.6,39.0,29.89,NE,45,2.2,3.8,39,0.00,,,0.00,meteobridge,2013-04-08 18:27:00,
2013-04-08 14:33:00,65.3,39.7,29.88,NE,45,3.1,3.1,39,0.00,,,0.00,meteobridge,2013-04-08 18:33:00,
2013-04-08 14:38:00,65.7,38.7,29.88,East,90,5.4,5.4,37,0.00,,,0.00,meteobridge,2013-04-08 18:38:00,
2013-04-08 14:43:00,65.3,39.0,29.88,East,90,6.0,6.0,38,0.00,,,0.00,meteobridge,2013-04-08 18:43:00,
2013-04-08 14:48:00,64.8,38.5,29.87,East,90,3.8,7.6,38,0.00,,,0.00,meteobridge,2013-04-08 18:48:00,
2013-04-08 14:53:00,64.2,37.4,29.86,North,0,3.1,3.8,37,0.00,,,0.00,meteobridge,2013-04-08 18:53:00,
2013-04-08 14:58:00,64.2,37.4,29.86,NE,45,3.8,3.8,37,0.00,,,0.00,meteobridge,2013-04-08 18:58:00,
2013-04-08 15:04:00,64.2,38.1,29.86,SE,135,6.0,6.0,38,0.00,,,0.00,meteobridge,2013-04-08 19:04:00,
2013-04-08 15:09:00,63.9,37.8,29.85,East,90,3.1,4.5,38,0.00,,,0.00,meteobridge,2013-04-08 19:09:00,
2013-04-08 15:14:00,64.0,37.9,29.85,NNE,23,4.5,4.5,38,0.00,,,0.00,meteobridge,2013-04-08 19:14:00,
2013-04-08 15:19:00,64.2,38.1,29.84,NE,45,3.1,3.8,38,0.00,,,0.00,meteobridge,2013-04-08 19:19:00,
2013-04-08 15:24:00,64.4,38.8,29.84,NE,45,3.8,4.5,39,0.00,,,0.00,meteobridge,2013-04-08 19:24:00,
2013-04-08 15:29:00,65.1,38.8,29.83,NE,45,3.8,6.0,38,0.00,,,0.00,meteobridge,2013-04-08 19:29:00,
2013-04-08 15:35:00,65.3,39.0,29.83,East,90,5.4,5.4,38,0.00,,,0.00,meteobridge,2013-04-08 19:35:00,
2013-04-08 15:40:00,66.0,39.7,29.83,North,0,4.5,6.0,38,0.00,,,0.00,meteobridge,2013-04-08 19:40:00,
2013-04-08 15:45:00,66.2,39.2,29.83,East,90,7.6,7.6,37,0.00,,,0.00,meteobridge,2013-04-08 19:45:00,
2013-04-08 15:50:00,66.6,38.8,29.83,North,0,5.4,9.2,36,0.00,,,0.00,meteobridge,2013-04-08 19:50:00,
2013-04-08 15:55:00,66.2,39.2,29.82,East,90,6.9,6.9,37,0.00,,,0.00,meteobridge,2013-04-08 19:55:00,
2013-04-08 16:00:00,65.8,40.1,29.82,East,90,5.4,8.3,39,0.00,,,0.00,meteobridge,2013-04-08 20:00:00,
2013-04-08 16:05:00,65.3,39.7,29.82,NE,45,4.5,6.0,39,0.00,,,0.00,meteobridge,2013-04-08 20:05:00,
2013-04-08 16:11:00,64.6,39.7,29.81,NE,45,5.4,5.4,40,0.00,,,0.00,meteobridge,2013-04-08 20:11:00,
2013-04-08 16:16:00,64.0,39.9,29.81,East,90,6.0,6.0,41,0.00,,,0.00,meteobridge,2013-04-08 20:16:00,
2013-04-08 16:21:00,63.3,39.9,29.82,NE,45,6.0,6.0,42,0.00,,,0.00,meteobridge,2013-04-08 20:21:00,
2013-04-08 16:26:00,62.8,39.9,29.82,NE,45,3.1,4.5,43,0.00,,,0.00,meteobridge,2013-04-08 20:26:00,
2013-04-08 16:31:00,62.4,42.4,29.82,SE,135,3.1,3.8,48,0.00,,,0.00,meteobridge,2013-04-08 20:31:00,
2013-04-08 16:36:00,62.1,43.2,29.82,NE,45,2.2,4.5,50,0.00,,,0.00,meteobridge,2013-04-08 20:36:00,
2013-04-08 16:42:00,61.7,42.8,29.81,East,90,4.5,5.4,50,0.00,,,0.00,meteobridge,2013-04-08 20:42:00,
2013-04-08 16:47:00,61.5,42.3,29.81,East,90,3.1,3.8,49,0.00,,,0.00,meteobridge,2013-04-08 20:47:00,
2013-04-08 16:52:00,61.2,43.3,29.80,NE,45,6.9,6.9,52,0.00,,,0.00,meteobridge,2013-04-08 20:52:00,
2013-04-08 16:57:00,60.6,43.9,29.79,NE,45,5.4,6.9,54,0.00,,,0.00,meteobridge,2013-04-08 20:57:00,
2013-04-08 17:02:00,60.8,43.5,29.79,East,90,3.8,4.5,53,0.00,,,0.00,meteobridge,2013-04-08 21:02:00,
2013-04-08 17:07:00,61.2,43.3,29.79,NW,315,5.4,5.4,52,0.00,,,0.00,meteobridge,2013-04-08 21:07:00,
2013-04-08 17:13:00,61.3,42.6,29.78,NE,45,5.4,6.0,50,0.00,,,0.00,meteobridge,2013-04-08 21:13:00,
2013-04-08 17:18:00,61.0,41.7,29.78,East,90,6.9,6.9,49,0.00,,,0.00,meteobridge,2013-04-08 21:18:00,
2013-04-08 17:23:00,60.8,42.1,29.78,NE,45,6.9,6.9,50,0.00,,,0.00,meteobridge,2013-04-08 21:23:00,
2013-04-08 17:28:00,60.6,43.0,29.78,East,90,4.5,6.0,52,0.00,,,0.00,meteobridge,2013-04-08 21:28:00,
2013-04-08 17:33:00,60.6,43.0,29.77,NW,315,3.8,3.8,52,0.00,,,0.00,meteobridge,2013-04-08 21:33:00,
2013-04-08 17:38:00,60.8,42.6,29.77,North,0,3.8,4.5,51,0.00,,,0.00,meteobridge,2013-04-08 21:38:00,
2013-04-08 17:44:00,60.6,42.4,29.78,East,90,2.2,4.5,51,0.00,,,0.00,meteobridge,2013-04-08 21:44:00,
2013-04-08 17:49:00,60.6,43.0,29.78,WNW,293,3.1,3.1,52,0.00,,,0.00,meteobridge,2013-04-08 21:49:00,
2013-04-08 17:54:00,60.6,43.3,29.79,NNE,23,5.4,5.4,53,0.00,,,0.00,meteobridge,2013-04-08 21:54:00,
2013-04-08 17:59:00,60.1,43.9,29.80,NW,315,6.0,7.6,55,0.00,,,0.00,meteobridge,2013-04-08 21:59:00,
2013-04-08 18:04:00,58.3,43.5,29.78,SE,135,6.0,10.7,58,0.00,,,0.00,meteobridge,2013-04-08 22:04:00,
2013-04-08 18:10:00,56.3,44.6,29.79,East,90,2.2,3.8,65,0.00,,,0.00,meteobridge,2013-04-08 22:10:00,
2013-04-08 18:15:00,55.6,44.8,29.79,North,0,3.8,3.8,67,0.00,,,0.00,meteobridge,2013-04-08 22:15:00,
2013-04-08 18:20:00,54.5,45.0,29.79,NE,45,3.8,3.8,70,0.00,,,0.00,meteobridge,2013-04-08 22:20:00,
2013-04-08 18:25:00,53.6,44.4,29.80,NNW,338,3.8,6.0,71,0.00,,,0.00,meteobridge,2013-04-08 22:25:00,
2013-04-08 18:30:00,52.9,44.4,29.80,NE,45,2.2,3.8,73,0.02,,,0.02,meteobridge,2013-04-08 22:30:00,
2013-04-08 18:35:00,52.3,44.2,29.80,West,270,3.1,4.5,74,0.02,,,0.02,meteobridge,2013-04-08 22:35:00,
2013-04-08 18:41:00,52.0,44.6,29.79,SE,135,2.2,3.1,76,0.02,,,0.02,meteobridge,2013-04-08 22:41:00,
2013-04-08 18:46:00,51.4,44.4,29.78,NE,45,3.8,7.6,77,0.02,,,0.02,meteobridge,2013-04-08 22:46:00,
2013-04-08 18:51:00,50.9,43.9,29.79,East,90,3.8,6.0,77,0.02,,,0.02,meteobridge,2013-04-08 22:51:00,
2013-04-08 18:56:00,50.7,43.7,29.78,East,90,5.4,6.9,77,0.02,,,0.02,meteobridge,2013-04-08 22:56:00,
2013-04-08 19:01:00,50.5,43.5,29.78,NE,45,4.5,4.5,77,0.04,,,0.04,meteobridge,2013-04-08 23:01:00,
2013-04-08 19:06:00,50.2,43.5,29.78,ENE,68,5.4,5.4,78,0.04,,,0.04,meteobridge,2013-04-08 23:06:00,
2013-04-08 19:12:00,49.8,43.9,29.77,East,90,5.4,6.0,80,0.04,,,0.04,meteobridge,2013-04-08 23:12:00,
2013-04-08 19:17:00,49.8,43.9,29.76,East,90,7.6,8.3,80,0.04,,,0.04,meteobridge,2013-04-08 23:17:00,
2013-04-08 19:22:00,49.8,44.2,29.75,East,90,9.8,9.8,81,0.04,,,0.04,meteobridge,2013-04-08 23:22:00,
2013-04-08 19:27:00,49.8,44.2,29.75,NE,45,6.0,6.9,81,0.01,,,0.04,meteobridge,2013-04-08 23:27:00,
2013-04-08 19:32:00,49.8,44.2,29.75,NE,45,7.6,7.6,81,0.01,,,0.04,meteobridge,2013-04-08 23:32:00,
2013-04-08 19:37:00,50.0,44.1,29.74,East,90,3.8,6.9,80,0.01,,,0.04,meteobridge,2013-04-08 23:37:00,
2013-04-08 19:43:00,50.2,44.2,29.74,NE,45,6.9,8.3,80,0.01,,,0.04,meteobridge,2013-04-08 23:43:00,
2013-04-08 19:48:00,50.4,44.1,29.73,NE,45,6.0,6.0,79,0.01,,,0.04,meteobridge,2013-04-08 23:48:00,
2013-04-08 19:53:00,50.5,44.2,29.73,East,90,7.6,7.6,79,0.01,,,0.04,meteobridge,2013-04-08 23:53:00,
2013-04-08 19:58:00,50.7,44.1,29.74,South,180,5.4,6.0,78,0.00,,,0.04,meteobridge,2013-04-08 23:58:00,
2013-04-08 20:03:00,50.9,44.2,29.74,NE,45,7.6,7.6,78,0.00,,,0.00,meteobridge,2013-04-09 00:03:00,
2013-04-08 20:13:00,50.9,44.2,29.75,North,0,4.5,4.5,78,0.00,,,0.00,meteobridge,2013-04-09 00:13:00,
2013-04-08 20:19:00,50.5,44.6,29.77,North,0,2.2,3.1,80,0.00,,,0.00,meteobridge,2013-04-09 00:19:00,
2013-04-08 20:24:00,50.2,44.6,29.77,North,0,4.5,4.5,81,0.02,,,0.02,meteobridge,2013-04-09 00:24:00,
2013-04-08 20:29:00,49.6,44.8,29.75,East,90,3.8,3.8,83,0.04,,,0.04,meteobridge,2013-04-09 00:29:00,
2013-04-08 20:34:00,49.1,44.4,29.75,North,0,2.2,3.8,84,0.05,,,0.05,meteobridge,2013-04-09 00:34:00,
2013-04-08 20:39:00,48.9,44.2,29.75,North,0,2.2,4.5,84,0.05,,,0.05,meteobridge,2013-04-09 00:39:00,
2013-04-08 20:45:00,48.7,44.4,29.75,NE,45,4.5,4.5,85,0.05,,,0.05,meteobridge,2013-04-09 00:45:00,
2013-04-08 20:50:00,48.4,44.1,29.74,NE,45,7.6,7.6,85,0.06,,,0.06,meteobridge,2013-04-09 00:50:00,
2013-04-08 20:55:00,48.2,43.9,29.74,North,0,1.6,1.6,85,0.06,,,0.06,meteobridge,2013-04-09 00:55:00,
2013-04-08 21:00:00,48.0,44.1,29.74,East,90,5.4,5.4,86,0.06,,,0.06,meteobridge,2013-04-09 01:00:00,
2013-04-08 21:05:00,48.0,44.1,29.73,NE,45,2.2,3.1,86,0.06,,,0.06,meteobridge,2013-04-09 01:05:00,
2013-04-08 21:10:00,47.7,43.7,29.73,NE,45,4.5,4.5,86,0.06,,,0.06,meteobridge,2013-04-09 01:10:00,
2013-04-08 21:16:00,47.7,44.1,29.73,NE,45,3.1,4.5,87,0.06,,,0.06,meteobridge,2013-04-09 01:16:00,
2013-04-08 21:21:00,47.7,44.1,29.73,East,90,3.8,3.8,87,0.04,,,0.06,meteobridge,2013-04-09 01:21:00,
2013-04-08 21:26:00,47.7,44.1,29.73,SW,225,1.6,2.2,87,0.02,,,0.06,meteobridge,2013-04-09 01:26:00,
2013-04-08 21:31:00,47.7,44.1,29.73,SE,135,3.8,3.8,87,0.01,,,0.06,meteobridge,2013-04-09 01:31:00,
2013-04-08 21:36:00,47.7,44.1,29.72,East,90,3.1,5.4,87,0.01,,,0.06,meteobridge,2013-04-09 01:36:00,
2013-04-08 21:41:00,47.8,44.2,29.72,SE,135,3.8,5.4,87,0.01,,,0.06,meteobridge,2013-04-09 01:41:00,
2013-04-08 21:46:00,47.8,44.2,29.73,NE,45,5.4,5.4,87,0.01,,,0.06,meteobridge,2013-04-09 01:46:00,
2013-04-08 21:52:00,47.8,44.2,29.73,NE,45,5.4,5.4,87,0.00,,,0.06,meteobridge,2013-04-09 01:52:00,
2013-04-08 21:57:00,48.0,44.6,29.72,SE,135,6.9,6.9,88,0.00,,,0.06,meteobridge,2013-04-09 01:57:00,
2013-04-08 22:02:00,48.0,44.6,29.73,South,180,3.1,3.1,88,0.00,,,0.06,meteobridge,2013-04-09 02:02:00,
2013-04-08 22:07:00,48.0,44.6,29.72,South,180,3.1,3.1,88,0.00,,,0.06,meteobridge,2013-04-09 02:07:00,
2013-04-08 22:12:00,48.2,44.6,29.71,South,180,4.5,4.5,87,0.00,,,0.06,meteobridge,2013-04-09 02:12:00,
2013-04-08 22:17:00,48.0,44.6,29.71,East,90,2.2,3.1,88,0.00,,,0.06,meteobridge,2013-04-09 02:17:00,
2013-04-08 22:23:00,48.0,44.6,29.72,West,270,3.1,3.1,88,0.00,,,0.06,meteobridge,2013-04-09 02:23:00,
2013-04-08 22:28:00,48.4,45.0,29.72,East,90,1.6,6.9,88,0.00,,,0.06,meteobridge,2013-04-09 02:28:00,
2013-04-08 22:33:00,48.6,45.1,29.71,SE,135,1.6,2.2,88,0.00,,,0.06,meteobridge,2013-04-09 02:33:00,
2013-04-08 22:38:00,48.7,45.3,29.71,SE,135,4.5,4.5,88,0.00,,,0.06,meteobridge,2013-04-09 02:38:00,
2013-04-08 22:43:00,49.6,46.2,29.71,South,180,2.2,2.2,88,0.00,,,0.06,meteobridge,2013-04-09 02:43:00,
2013-04-08 22:54:00,50.7,46.8,29.71,SW,225,1.6,2.2,86,0.00,,,0.06,meteobridge,2013-04-09 02:54:00,
2013-04-08 22:59:00,51.3,46.6,29.71,SW,225,1.6,1.6,84,0.00,,,0.06,meteobridge,2013-04-09 02:59:00,
2013-04-08 23:04:00,51.6,46.9,29.70,SW,225,1.6,2.2,84,0.00,,,0.06,meteobridge,2013-04-09 03:04:00,
2013-04-08 23:09:00,52.3,47.3,29.70,SW,225,6.0,6.0,83,0.00,,,0.06,meteobridge,2013-04-09 03:09:00,
2013-04-08 23:14:00,54.7,48.4,29.70,West,270,8.3,8.3,79,0.00,,,0.06,meteobridge,2013-04-09 03:14:00,
2013-04-08 23:19:00,55.9,48.6,29.71,SW,225,6.0,6.9,76,0.00,,,0.06,meteobridge,2013-04-09 03:19:00,
2013-04-08 23:25:00,57.2,48.2,29.71,West,270,8.3,9.8,72,0.00,,,0.06,meteobridge,2013-04-09 03:25:00,
2013-04-08 23:30:00,57.6,47.8,29.70,SW,225,7.6,10.7,70,0.00,,,0.06,meteobridge,2013-04-09 03:30:00,
2013-04-08 23:35:00,57.6,47.5,29.70,South,180,7.6,8.3,69,0.00,,,0.06,meteobridge,2013-04-09 03:35:00,
2013-04-08 23:40:00,57.6,47.5,29.69,SW,225,9.8,10.7,69,0.00,,,0.06,meteobridge,2013-04-09 03:40:00,
2013-04-08 23:45:00,58.5,48.7,29.69,West,270,9.2,10.7,70,0.00,,,0.06,meteobridge,2013-04-09 03:45:00,
2013-04-08 23:50:00,60.1,49.8,29.68,SW,225,15.2,15.2,69,0.00,,,0.06,meteobridge,2013-04-09 03:50:00,
2013-04-08 23:56:00,61.9,50.4,29.72,SW,225,14.5,14.5,66,0.00,,,0.06,meteobridge,2013-04-09 03:56:00,